createdAt,value
2018-04-30T00:19:32.144Z,87.17
2018-04-30T00:20:32.116Z,87.55
2018-04-30T00:21:32.148Z,87.65
2018-04-30T00:22:32.527Z,87.65
2018-04-30T00:23:32.546Z,87.65
2018-04-30T00:24:32.314Z,87.65
2018-04-30T00:25:32.613Z,87.84
2018-04-30T00:26:32.658Z,87.94
2018-04-30T00:27:32.683Z,87.84
2018-04-30T00:28:32.813Z,87.94
2018-04-30T00:29:32.697Z,87.65
2018-04-30T00:30:33.385Z,88.13
2018-04-30T00:31:33.412Z,87.65
2018-04-30T00:32:33.442Z,88.03
2018-04-30T00:33:33.474Z,87.55
2018-04-30T00:34:33.589Z,87.94
2018-04-30T00:35:33.617Z,88.23
2018-04-30T00:36:33.651Z,88.32
2018-04-30T00:37:34.069Z,88.03
2018-04-30T00:38:33.903Z,88.61
2018-04-30T00:39:34.286Z,88.51
2018-04-30T00:40:34.648Z,88.7
2018-04-30T00:41:35.067Z,88.7
2018-04-30T00:42:35.094Z,88.7
2018-04-30T00:43:35.129Z,88.7
2018-04-30T00:44:35.534Z,89.09
2018-04-30T00:45:35.566Z,88.7
2018-04-30T00:46:35.595Z,88.7
2018-04-30T00:47:36.011Z,88.7
2018-04-30T00:48:35.859Z,88.9
2018-04-30T00:49:35.974Z,88.7
2018-04-30T00:50:36.364Z,88.8
2018-04-30T00:51:36.359Z,88.61
2018-04-30T00:52:36.149Z,88.61
2018-04-30T00:53:36.804Z,89.09
2018-04-30T00:54:37.179Z,89.28
2018-04-30T00:55:37.219Z,89.28
2018-04-30T00:56:37.343Z,88.8
2018-04-30T00:57:37.743Z,89.37
2018-04-30T00:58:37.774Z,89.18
2018-04-30T00:59:38.181Z,89.28
2018-04-30T01:00:38.790Z,89.28
2018-04-30T01:01:38.737Z,89.28
2018-04-30T01:02:38.267Z,88.8
2018-04-30T01:03:38.112Z,89.28
2018-04-30T01:04:38.524Z,89.28
2018-04-30T01:05:38.264Z,89.47
2018-04-30T01:06:38.577Z,89.18
2018-04-30T01:07:38.731Z,89.9
2018-04-30T01:08:38.638Z,89.81
2018-04-30T01:09:38.947Z,90.05
2018-04-30T01:10:39.064Z,89.9
2018-04-30T01:11:39.011Z,89.95
2018-04-30T01:12:39.421Z,90
2018-04-30T01:13:39.452Z,89.81
2018-04-30T01:14:39.855Z,90.29
2018-04-30T01:15:39.966Z,89.47
2018-04-30T01:16:39.996Z,90.39
2018-04-30T01:17:40.115Z,90
2018-04-30T01:18:40.181Z,90.19
2018-04-30T01:19:40.598Z,90.39
2018-04-30T01:20:40.709Z,90.09
2018-04-30T01:21:40.841Z,89.95
2018-04-30T01:22:40.970Z,90
2018-04-30T01:23:41.382Z,90.09
2018-04-30T01:24:41.411Z,90.09
2018-04-30T01:25:41.572Z,90.67
2018-04-30T01:26:41.598Z,90.58
2018-04-30T01:27:41.617Z,90.39
2018-04-30T01:28:41.660Z,90.67
2018-04-30T01:29:41.701Z,90.96
2018-04-30T01:30:41.459Z,90.67
2018-04-30T01:31:41.603Z,90.86
2018-04-30T01:32:41.633Z,91.05
2018-04-30T01:33:42.044Z,91.05
2018-04-30T01:34:42.062Z,91.53
2018-04-30T01:35:42.116Z,91.53
2018-04-30T01:36:42.261Z,91.82
2018-04-30T01:37:42.483Z,91.53
2018-04-30T01:38:42.920Z,91.92
2018-04-30T01:39:43.029Z,91.63
2018-04-30T01:40:43.160Z,91.82
2018-04-30T01:41:43.449Z,91.82
2018-04-30T01:42:43.721Z,92.01
2018-04-30T01:43:43.819Z,91.92
2018-04-30T01:44:43.761Z,92.01
2018-04-30T01:45:43.508Z,92.11
2018-04-30T01:46:43.986Z,92.3
2018-04-30T01:47:43.729Z,92.3
2018-04-30T01:48:44.385Z,91.92
2018-04-30T01:49:44.825Z,92.49
2018-04-30T01:50:44.811Z,92.49
2018-04-30T01:51:44.661Z,92.97
2018-04-30T01:52:45.077Z,93.16
2018-04-30T01:53:45.091Z,93.16
2018-04-30T01:54:45.755Z,93.16
2018-04-30T01:55:45.640Z,92.87
2018-04-30T01:56:45.947Z,93.54
2018-04-30T01:57:45.974Z,93.16
2018-04-30T01:58:46.372Z,93.93
2018-04-30T01:59:46.782Z,93.26
2018-04-30T03:00:16.401Z,99.76
2018-04-30T03:01:15.050Z,99.62
2018-04-30T03:02:15.457Z,99.99
2018-04-30T03:03:14.902Z,99.91
2018-04-30T03:04:15.154Z,99.99
2018-04-30T03:05:14.915Z,99.81
2018-04-30T03:06:14.995Z,99.99
2018-04-30T03:07:15.461Z,99.99
2018-04-30T03:08:15.353Z,99.99
2018-04-30T03:09:15.370Z,99.91
2018-04-30T03:10:15.657Z,99.99
2018-04-30T03:11:15.883Z,99.99
2018-04-30T03:12:16.091Z,99.99
2018-04-30T03:13:16.098Z,99.99
2018-04-30T03:14:16.133Z,99.99
2018-04-30T03:15:16.244Z,99.99
2018-04-30T03:16:16.629Z,99.99
2018-04-30T03:17:17.132Z,99.99
2018-04-30T03:18:16.709Z,99.99
2018-04-30T03:19:16.725Z,99.99
2018-04-30T03:20:16.774Z,99.99
2018-04-30T03:21:16.897Z,99.99
2018-04-30T03:22:17.372Z,99.99
2018-04-30T03:23:17.806Z,99.99
2018-04-30T03:24:17.678Z,99.99
2018-04-30T03:25:17.996Z,99.99
2018-04-30T03:26:18.425Z,99.99
2018-04-30T03:27:18.952Z,99.99
2018-04-30T03:28:18.935Z,99.99
2018-04-30T03:29:18.998Z,99.99
2018-04-30T03:30:19.135Z,99.99
2018-04-30T03:31:19.007Z,99.99
2018-04-30T03:32:19.439Z,99.99
2018-04-30T03:33:19.461Z,99.99
2018-04-30T03:34:19.571Z,99.99
2018-04-30T03:35:19.612Z,99.99
2018-04-30T03:36:19.793Z,99.99
2018-04-30T03:37:19.966Z,99.99
2018-04-30T03:38:20.403Z,99.99
2018-04-30T03:39:20.821Z,99.99
2018-04-30T03:40:20.901Z,99.99
2018-04-30T03:41:21.004Z,99.99
2018-04-30T03:42:20.776Z,99.99
2018-04-30T03:43:21.160Z,99.99
2018-04-30T03:44:21.864Z,99.99
2018-04-30T03:45:21.610Z,99.99
2018-04-30T03:46:22.058Z,99.99
2018-04-30T03:47:22.054Z,99.99
2018-04-30T03:48:22.090Z,99.99
2018-04-30T03:49:22.158Z,99.99
2018-04-30T03:50:22.561Z,99.99
2018-04-30T03:51:22.723Z,99.99
2018-04-30T03:52:22.747Z,99.99
2018-04-30T03:53:22.860Z,99.99
2018-04-30T03:54:22.899Z,99.99
2018-04-30T03:55:23.416Z,99.99
2018-04-30T03:56:23.323Z,99.99
2018-04-30T03:57:23.350Z,99.99
2018-04-30T03:58:23.403Z,99.99
2018-04-30T03:59:23.443Z,99.99
2018-04-30T04:00:24.452Z,99.99
2018-04-30T04:01:25.307Z,99.99
2018-04-30T04:02:24.273Z,99.99
2018-04-30T04:03:23.893Z,99.99
2018-04-30T04:04:23.916Z,99.99
2018-04-30T04:05:23.671Z,99.99
2018-04-30T04:06:23.985Z,99.99
2018-04-30T04:07:24.169Z,99.99
2018-04-30T04:08:24.567Z,99.99
2018-04-30T04:09:24.308Z,99.99
2018-04-30T04:10:24.765Z,99.99
2018-04-30T04:11:24.618Z,99.99
2018-04-30T04:12:24.980Z,99.99
2018-04-30T04:13:25.393Z,99.99
2018-04-30T04:14:25.141Z,99.99
2018-04-30T04:15:25.173Z,99.99
2018-04-30T04:16:25.274Z,99.99
2018-04-30T04:17:25.583Z,99.99
2018-04-30T04:18:25.343Z,99.99
2018-04-30T04:19:25.760Z,99.99
2018-04-30T04:20:26.210Z,99.99
2018-04-30T04:21:26.749Z,99.99
2018-04-30T04:22:26.243Z,99.99
2018-04-30T04:23:26.770Z,99.99
2018-04-30T04:24:26.583Z,99.99
2018-04-30T04:25:26.844Z,99.99
2018-04-30T04:26:27.007Z,99.99
2018-04-30T04:27:26.958Z,99.99
2018-04-30T04:28:27.667Z,99.99
2018-04-30T04:29:27.385Z,99.99
2018-04-30T04:30:27.295Z,99.99
2018-04-30T04:31:27.405Z,99.99
2018-04-30T04:32:27.820Z,99.99
2018-04-30T04:33:27.395Z,99.99
2018-04-30T04:34:27.868Z,99.99
2018-04-30T04:35:27.859Z,99.99
2018-04-30T04:36:27.895Z,99.99
2018-04-30T04:37:28.198Z,99.99
2018-04-30T04:38:28.611Z,99.99
2018-04-30T04:39:28.581Z,99.99
2018-04-30T04:40:28.633Z,99.99
2018-04-30T04:41:28.819Z,99.99
2018-04-30T04:42:28.923Z,99.99
2018-04-30T04:43:28.914Z,99.99
2018-04-30T04:44:29.444Z,99.99
2018-04-30T04:45:29.191Z,99.99
2018-04-30T04:46:29.206Z,99.99
2018-04-30T04:47:30.280Z,99.99
2018-04-30T04:48:30.259Z,99.99
2018-04-30T04:49:30.184Z,99.99
2018-04-30T04:50:30.204Z,99.99
2018-04-30T04:51:30.375Z,99.99
2018-04-30T04:52:30.279Z,99.99
2018-04-30T04:53:30.265Z,99.99
2018-04-30T04:54:30.274Z,99.99
2018-04-30T04:55:31.087Z,99.99
2018-04-30T04:56:30.873Z,99.96
2018-04-30T04:57:31.103Z,99.62
2018-04-30T04:58:30.834Z,99.99
2018-04-30T04:59:31.568Z,99.81
2018-04-30T05:00:31.491Z,99.91
2018-04-30T05:01:31.850Z,99.62
2018-04-30T05:02:31.874Z,99.52
2018-04-30T05:03:31.862Z,99.33
2018-04-30T05:04:32.207Z,99.81
2018-04-30T05:05:31.682Z,98.66
2018-04-30T05:06:32.128Z,98.33
2018-04-30T05:07:32.188Z,97.56
2018-04-30T05:08:32.205Z,97.18
2018-04-30T05:09:31.980Z,96.7
2018-04-30T05:10:32.540Z,96.47
2018-04-30T05:11:32.301Z,95.79
2018-04-30T05:12:32.588Z,95.22
2018-04-30T05:13:32.624Z,94.64
2018-04-30T05:14:32.710Z,93.98
2018-04-30T05:15:32.653Z,94.02
2018-04-30T05:16:32.693Z,93.83
2018-04-30T05:17:32.469Z,94.21
2018-04-30T05:18:32.546Z,94.59
2018-04-30T05:19:33.269Z,95.41
2018-04-30T05:20:32.991Z,95.89
2018-04-30T05:21:33.170Z,95.7
2018-04-30T05:22:33.498Z,96.42
2018-04-30T05:23:33.634Z,96.99
2018-04-30T05:24:33.649Z,96.7
2018-04-30T05:25:33.737Z,96.61
2018-04-30T05:26:34.054Z,97.38
2018-04-30T05:27:33.695Z,97.18
2018-04-30T05:28:33.847Z,97.18
2018-04-30T05:29:33.709Z,97.18
2018-04-30T05:30:33.533Z,97.56
2018-04-30T05:31:33.641Z,97.18
2018-04-30T05:32:33.862Z,97.18
2018-04-30T05:33:34.171Z,96.89
2018-04-30T05:34:34.206Z,97.09
2018-04-30T05:35:34.534Z,97.18
2018-04-30T05:36:34.260Z,96.32
2018-04-30T05:37:34.311Z,96.61
2018-04-30T05:38:34.131Z,96.7
2018-04-30T05:39:34.356Z,95.79
2018-04-30T05:40:34.659Z,95.22
2018-04-30T05:41:34.627Z,94.84
2018-04-30T05:42:34.652Z,94.02
2018-04-30T05:43:34.771Z,92.34
2018-04-30T05:44:35.552Z,91.09
2018-04-30T05:45:35.573Z,90.56
2018-04-30T05:46:35.573Z,90.08
2018-04-30T05:47:35.579Z,90.85
2018-04-30T05:48:36.269Z,90.18
2018-04-30T05:49:36.030Z,89.41
2018-04-30T05:50:36.435Z,88.65
2018-04-30T05:51:36.828Z,88.59
2018-04-30T05:52:36.867Z,86.91
2018-04-30T05:53:37.299Z,84.94
2018-04-30T05:54:37.311Z,83.44
2018-04-30T05:55:37.470Z,83.06
2018-04-30T05:56:37.793Z,82.32
2018-04-30T05:57:37.819Z,81.12
2018-04-30T05:58:37.577Z,79.03
2018-04-30T05:59:38.074Z,79.08
2018-04-30T06:00:47.449Z,78.02
2018-04-30T06:01:46.920Z,77
2018-04-30T07:00:08.934Z,53.75
2018-04-30T07:00:54.241Z,54.06
2018-04-30T07:01:54.244Z,53.97
2018-04-30T07:02:54.263Z,54.16
2018-04-30T07:03:54.309Z,54.43
2018-04-30T07:04:54.481Z,55.4
2018-04-30T07:05:54.311Z,54.06
2018-04-30T07:06:54.466Z,53.48
2018-04-30T07:07:54.411Z,52.95
2018-04-30T07:08:54.483Z,52.66
2018-04-30T07:09:54.262Z,51.9
2018-04-30T07:10:54.129Z,51.43
2018-04-30T07:11:54.648Z,51.7
2018-04-30T07:12:54.608Z,51.24
2018-04-30T07:13:54.853Z,50.78
2018-04-30T07:14:54.635Z,50.2
2018-04-30T07:15:54.313Z,49.33
2018-04-30T07:16:54.086Z,49.36
2018-04-30T07:17:54.878Z,48.8
2018-04-30T07:18:54.933Z,47.85
2018-04-30T07:19:54.639Z,47.55
2018-04-30T07:20:54.689Z,47.4
2018-04-30T07:21:54.448Z,48.36
2018-04-30T07:22:55.135Z,47.67
2018-04-30T07:23:54.893Z,47.18
2018-04-30T07:24:54.664Z,48.24
2018-04-30T07:25:54.979Z,48.72
2018-04-30T07:26:55.019Z,48.43
2018-04-30T07:27:55.170Z,48.43
2018-04-30T07:28:54.895Z,48.55
2018-04-30T07:29:55.140Z,49.09
2018-04-30T07:30:55.337Z,49.07
2018-04-30T07:31:55.369Z,48.8
2018-04-30T07:32:55.367Z,48.53
2018-04-30T07:33:55.703Z,48.82
2018-04-30T07:34:55.452Z,48.82
2018-04-30T07:35:55.767Z,49.09
2018-04-30T07:36:55.802Z,48.41
2018-04-30T07:37:55.984Z,48.43
2018-04-30T07:38:56.056Z,46.44
2018-04-30T07:39:56.047Z,46.1
2018-04-30T07:40:56.150Z,45.38
2018-04-30T07:41:56.342Z,43.75
2018-04-30T07:42:56.160Z,43.3
2018-04-30T07:43:56.285Z,43.57
2018-04-30T07:44:56.735Z,43.38
2018-04-30T07:45:57.206Z,42.91
2018-04-30T07:46:57.026Z,42.99
2018-04-30T07:47:57.002Z,43.57
2018-04-30T07:48:57.470Z,44.62
2018-04-30T07:49:57.552Z,45.95
2018-04-30T07:50:57.739Z,46
2018-04-30T07:51:58.439Z,45.9
2018-04-30T07:52:57.635Z,45.63
2018-04-30T07:53:57.600Z,45.24
2018-04-30T07:54:57.938Z,45.26
2018-04-30T07:55:57.958Z,44.3
2018-04-30T07:56:58.156Z,45.2
2018-04-30T07:57:58.191Z,45.55
2018-04-30T07:58:58.430Z,44.27
2018-04-30T07:59:58.665Z,44.69
2018-04-30T08:00:58.727Z,43.93
2018-04-30T08:01:58.484Z,42.89
2018-04-30T08:02:59.061Z,42.24
2018-04-30T08:03:59.517Z,42.14
2018-04-30T08:04:59.586Z,42.12
2018-04-30T08:05:59.865Z,42.04
2018-04-30T08:07:00.046Z,41.39
2018-04-30T08:08:00.248Z,41.67
2018-04-30T08:09:00.425Z,41.86
2018-04-30T08:10:00.805Z,42.22
2018-04-30T08:11:00.524Z,42.4
2018-04-30T08:12:01.270Z,42.91
2018-04-30T08:13:01.476Z,42.59
2018-04-30T08:14:01.773Z,42.41
2018-04-30T08:15:02.390Z,42.02
2018-04-30T08:16:02.134Z,41.38
2018-04-30T08:17:02.189Z,41.39
2018-04-30T08:18:02.405Z,41.27
2018-04-30T08:19:02.682Z,40.7
2018-04-30T08:20:03.583Z,40.55
2018-04-30T08:21:03.311Z,41.12
2018-04-30T08:22:03.394Z,41.22
2018-04-30T08:23:03.697Z,40.72
2018-04-30T08:24:03.186Z,41.12
2018-04-30T08:25:03.370Z,41.2
2018-04-30T08:26:03.943Z,40.9
2018-04-30T08:27:03.995Z,41
2018-04-30T08:28:03.784Z,40.7
2018-04-30T08:29:04.561Z,41.57
2018-04-30T08:30:03.854Z,41.2
2018-04-30T08:31:03.960Z,40.05
2018-04-30T08:32:04.361Z,39.79
2018-04-30T08:33:04.155Z,38.37
2018-04-30T08:34:04.498Z,37.12
2018-04-30T08:35:04.234Z,37.91
2018-04-30T08:36:04.631Z,36.56
2018-04-30T08:37:04.631Z,36.5
2018-04-30T08:38:04.660Z,36.9
2018-04-30T08:39:04.522Z,36.23
2018-04-30T08:40:05.138Z,35.36
2018-04-30T08:41:05.390Z,35.52
2018-04-30T08:42:05.157Z,36
2018-04-30T08:43:05.238Z,36.23
2018-04-30T08:44:05.576Z,35.38
2018-04-30T08:45:05.980Z,35.22
2018-04-30T08:46:05.902Z,33.26
2018-04-30T08:47:05.871Z,33.04
2018-04-30T08:48:06.516Z,34.06
2018-04-30T08:49:06.558Z,33.69
2018-04-30T08:50:06.691Z,34.08
2018-04-30T08:51:06.951Z,35.29
2018-04-30T08:52:07.181Z,36.49
2018-04-30T08:53:07.056Z,38.49
2018-04-30T08:54:07.290Z,39.03
2018-04-30T08:55:07.760Z,41.25
2018-04-30T08:56:07.969Z,41.04
2018-04-30T08:57:08.352Z,40.27
2018-04-30T08:58:08.838Z,39.44
2018-04-30T08:59:09.163Z,40.43
2018-04-30T09:00:10.334Z,41.38
2018-04-30T09:01:08.953Z,42.2
2018-04-30T09:02:08.850Z,43.33
2018-04-30T09:03:09.216Z,44.06
2018-04-30T09:04:09.209Z,44.51
2018-04-30T09:05:09.383Z,44.98
2018-04-30T09:06:09.556Z,45.34
2018-04-30T09:07:09.621Z,44.73
2018-04-30T09:08:09.627Z,44.67
2018-04-30T09:09:09.872Z,43.29
2018-04-30T09:10:10.233Z,44.16
2018-04-30T09:11:10.241Z,45.51
2018-04-30T09:12:10.406Z,45.78
2018-04-30T09:13:10.355Z,45.29
2018-04-30T09:14:10.568Z,45.09
2018-04-30T09:15:10.483Z,43.39
2018-04-30T09:16:10.455Z,41.51
2018-04-30T09:17:10.348Z,41.8
2018-04-30T09:18:10.754Z,42.3
2018-04-30T09:19:11.164Z,42.69
2018-04-30T09:20:11.571Z,44.01
2018-04-30T09:21:11.620Z,45.51
2018-04-30T09:22:11.801Z,45.73
2018-04-30T09:23:11.842Z,46.77
2018-04-30T09:24:12.137Z,47.33
2018-04-30T09:25:12.003Z,47.43
2018-04-30T09:26:12.190Z,48.5
2018-04-30T09:27:12.632Z,48.68
2018-04-30T09:28:12.739Z,46.97
2018-04-30T09:29:13.280Z,45.37
2018-04-30T09:30:13.029Z,43.22
2018-04-30T09:31:13.119Z,41.98
2018-04-30T09:32:13.104Z,41.53
2018-04-30T09:33:13.641Z,41.38
2018-04-30T09:34:13.607Z,40.41
2018-04-30T09:35:13.692Z,40.63
2018-04-30T09:36:13.414Z,42.16
2018-04-30T09:37:13.719Z,44.54
2018-04-30T09:38:14.148Z,46.17
2018-04-30T09:39:13.913Z,48.43
2018-04-30T09:40:14.157Z,50.15
2018-04-30T09:41:14.467Z,51.56
2018-04-30T09:42:14.707Z,52.09
2018-04-30T09:43:14.727Z,53.07
2018-04-30T09:44:14.764Z,53.53
2018-04-30T09:45:15.181Z,55.52
2018-04-30T09:46:15.224Z,57.32
2018-04-30T09:47:15.665Z,58.14
2018-04-30T09:48:16.185Z,58.53
2018-04-30T09:49:16.619Z,57.1
2018-04-30T09:50:16.418Z,56.67
2018-04-30T09:51:16.868Z,57.45
2018-04-30T09:52:17.064Z,57.87
2018-04-30T09:53:17.128Z,60.15
2018-04-30T09:54:17.579Z,61.16
2018-04-30T09:55:18.399Z,62.1
2018-04-30T09:56:18.161Z,61.52
2018-04-30T09:57:18.259Z,59.38
2018-04-30T09:58:18.341Z,59.14
2018-04-30T09:59:18.375Z,59.69
2018-04-30T10:00:18.417Z,60.83
2018-04-30T10:01:18.814Z,61.74
2018-04-30T10:02:19.247Z,63.75
2018-04-30T10:03:19.478Z,64.27
2018-04-30T10:04:20.132Z,65.79
2018-04-30T10:05:21.103Z,66.85
2018-04-30T10:06:20.950Z,67.21
2018-04-30T10:07:20.702Z,67.3
2018-04-30T10:08:20.541Z,67.85
2018-04-30T10:09:20.597Z,68.59
2018-04-30T10:10:20.604Z,69.92
2018-04-30T10:11:20.730Z,70.46
2018-04-30T10:12:20.789Z,71.1
2018-04-30T10:13:20.924Z,71.78
2018-04-30T10:14:21.034Z,72.55
2018-04-30T10:15:21.025Z,72.52
2018-04-30T10:16:21.060Z,71.88
2018-04-30T10:17:20.827Z,72.06
2018-04-30T10:18:21.309Z,71.58
2018-04-30T10:19:21.184Z,71.68
2018-04-30T10:20:21.383Z,72.42
2018-04-30T10:21:21.008Z,73.09
2018-04-30T10:22:21.013Z,72.13
2018-04-30T10:23:21.528Z,71.74
2018-04-30T10:24:21.364Z,71.84
2018-04-30T10:25:21.571Z,72.77
2018-04-30T10:26:21.669Z,72.58
2018-04-30T10:27:21.648Z,72
2018-04-30T10:28:21.675Z,71.8
2018-04-30T10:29:21.763Z,71.55
2018-04-30T10:30:22.152Z,70.68
2018-04-30T10:31:21.797Z,70.42
2018-04-30T10:32:21.836Z,68.43
2018-04-30T10:33:21.731Z,65.05
2018-04-30T10:34:21.913Z,62.33
2018-04-30T10:35:22.161Z,60.74
2018-04-30T10:36:22.898Z,59.92
2018-04-30T10:37:22.975Z,60
2018-04-30T10:38:22.820Z,61.13
2018-04-30T10:39:22.958Z,61.61
2018-04-30T10:40:23.331Z,62.13
2018-04-30T10:41:23.037Z,63.46
2018-04-30T10:42:23.604Z,64.27
2018-04-30T10:43:24.018Z,65.3
2018-04-30T10:44:24.096Z,66.63
2018-04-30T10:45:24.100Z,67.72
2018-04-30T10:46:23.947Z,68.49
2018-04-30T10:47:24.155Z,69.32
2018-04-30T10:48:24.089Z,70.16
2018-04-30T10:49:24.423Z,70.06
2018-04-30T10:50:24.664Z,70.74
2018-04-30T10:51:25.126Z,71.19
2018-04-30T10:52:24.859Z,71.77
2018-04-30T10:53:25.362Z,70.9
2018-04-30T10:54:25.784Z,71.67
2018-04-30T10:55:25.840Z,72.54
2018-04-30T10:56:25.938Z,72.79
2018-04-30T10:57:25.949Z,73.66
2018-04-30T10:58:25.956Z,74.05
2018-04-30T10:59:26.009Z,73.57
2018-04-30T11:00:26.008Z,73.75
2018-04-30T11:01:26.418Z,73.08
2018-04-30T11:02:26.744Z,73.95
2018-04-30T11:03:26.895Z,74.33
2018-04-30T11:04:26.928Z,73.72
2018-04-30T11:05:26.797Z,74.2
2018-04-30T11:06:27.262Z,73.72
2018-04-30T11:07:27.338Z,74.4
2018-04-30T11:08:27.029Z,74.2
2018-04-30T11:09:27.685Z,73.72
2018-04-30T11:10:27.710Z,74.24
2018-04-30T11:11:27.750Z,73.85
2018-04-30T11:12:27.875Z,73.18
2018-04-30T11:13:27.823Z,72.99
2018-04-30T11:14:27.995Z,73.08
2018-04-30T11:15:27.889Z,72.99
2018-04-30T11:16:28.008Z,73.85
2018-04-30T11:17:28.164Z,73.95
2018-04-30T11:18:28.498Z,72.99
2018-04-30T11:19:28.555Z,71.67
2018-04-30T11:20:28.599Z,71.96
2018-04-30T11:21:28.635Z,70.7
2018-04-30T11:22:28.828Z,70.54
2018-04-30T11:23:29.088Z,70
2018-04-30T11:24:28.842Z,69.23
2018-04-30T11:25:28.969Z,67.69
2018-04-30T11:26:29.449Z,68.26
2018-04-30T11:27:30.038Z,68.46
2018-04-30T11:28:30.005Z,68.55
2018-04-30T11:29:30.408Z,68.65
2018-04-30T11:30:30.405Z,69.13
2018-04-30T11:31:30.490Z,67.78
2018-04-30T11:32:30.656Z,67.69
2018-04-30T11:33:30.944Z,67.11
2018-04-30T11:34:30.813Z,66.53
2018-04-30T11:35:30.952Z,66.72
2018-04-30T11:36:31.001Z,66.33
2018-04-30T11:37:31.259Z,67.2
2018-04-30T11:38:31.041Z,67.11
2018-04-30T11:39:30.916Z,67.88
2018-04-30T11:40:31.222Z,66.72
2018-04-30T11:41:31.002Z,66.78
2018-04-30T11:42:31.125Z,66.59
2018-04-30T11:43:31.452Z,66.59
2018-04-30T11:44:31.256Z,66.3
2018-04-30T11:45:31.613Z,66.59
2018-04-30T11:46:32.578Z,66.97
2018-04-30T11:47:32.455Z,67.27
2018-04-30T11:48:32.774Z,67.07
2018-04-30T11:49:32.540Z,66.85
2018-04-30T11:50:32.338Z,66.75
2018-04-30T11:51:33.072Z,66.43
2018-04-30T11:52:32.908Z,66.78
2018-04-30T11:53:32.951Z,67.07
2018-04-30T11:54:33.313Z,66.59
2018-04-30T11:55:33.487Z,67.61
2018-04-30T11:56:33.325Z,67.42
2018-04-30T11:57:33.486Z,67.81
2018-04-30T11:58:33.393Z,66.85
2018-04-30T11:59:33.917Z,68.1
2018-04-30T12:00:35.009Z,68.16
2018-04-30T12:01:35.639Z,69.02
2018-04-30T12:02:34.447Z,69.02
2018-04-30T12:03:34.193Z,69.09
2018-04-30T12:04:34.422Z,69.57
2018-04-30T12:05:34.140Z,69.95
2018-04-30T12:06:34.325Z,70.43
2018-04-30T12:07:34.994Z,68.35
2018-04-30T12:08:34.854Z,69.7
2018-04-30T12:09:34.741Z,70.41
2018-04-30T12:10:34.598Z,70.31
2018-04-30T12:11:35.009Z,70.06
2018-04-30T12:12:34.590Z,70.06
2018-04-30T12:13:34.863Z,70.19
2018-04-30T12:14:35.364Z,70.28
2018-04-30T12:15:34.954Z,70.09
2018-04-30T12:16:35.199Z,69.03
2018-04-30T12:17:35.130Z,70.03
2018-04-30T12:18:34.877Z,68.97
2018-04-30T12:19:35.175Z,69.26
2018-04-30T12:20:35.260Z,68.97
2018-04-30T12:21:35.168Z,68.49
2018-04-30T12:22:35.500Z,68.01
2018-04-30T12:23:36.161Z,67.62
2018-04-30T12:24:35.835Z,67.62
2018-04-30T12:25:36.029Z,68.59
2018-04-30T12:26:35.639Z,68.01
2018-04-30T12:27:35.708Z,67.33
2018-04-30T12:28:35.717Z,68.29
2018-04-30T12:29:35.831Z,67.91
2018-04-30T12:30:35.811Z,69.16
2018-04-30T12:31:35.824Z,69.45
2018-04-30T12:32:37.210Z,69.16
2018-04-30T12:33:36.964Z,69.03
2018-04-30T12:34:36.791Z,69.71
2018-04-30T12:35:36.960Z,68.8
2018-04-30T12:36:36.574Z,69.09
2018-04-30T12:37:37.330Z,69.67
2018-04-30T12:38:37.234Z,69.87
2018-04-30T12:39:37.028Z,70.35
2018-04-30T12:40:37.416Z,69.09
2018-04-30T12:41:37.788Z,69.87
2018-04-30T12:42:37.412Z,69.67
2018-04-30T12:43:37.284Z,69.64
2018-04-30T12:44:37.275Z,69.09
2018-04-30T12:45:37.688Z,69.54
2018-04-30T12:46:37.507Z,69.93
2018-04-30T12:47:37.708Z,69.93
2018-04-30T12:48:37.755Z,70.21
2018-04-30T12:49:37.954Z,69.51
2018-04-30T12:50:38.123Z,70.37
2018-04-30T12:51:37.948Z,70.95
2018-04-30T12:52:37.939Z,71.04
2018-04-30T12:53:37.956Z,72.78
2018-04-30T12:54:38.437Z,71.56
2018-04-30T12:55:38.016Z,71.37
2018-04-30T12:56:38.464Z,70.7
2018-04-30T12:57:38.057Z,69.83
2018-04-30T12:58:38.690Z,69.64
2018-04-30T12:59:39.017Z,70.06
2018-04-30T13:00:40.134Z,69.09
2018-04-30T13:01:39.249Z,68.8
2018-04-30T13:02:38.639Z,69.38
2018-04-30T13:03:38.574Z,69.09
2018-04-30T13:04:38.306Z,68.26
2018-04-30T13:05:38.820Z,67.1
2018-04-30T13:06:38.945Z,67.49
2018-04-30T13:07:39.205Z,66.52
2018-04-30T13:08:38.632Z,66.72
2018-04-30T13:09:38.899Z,66.52
2018-04-30T13:10:38.997Z,67.1
2018-04-30T13:11:39.981Z,67.3
2018-04-30T13:12:39.685Z,67.49
2018-04-30T13:13:39.598Z,68.16
2018-04-30T13:14:39.973Z,67.68
2018-04-30T13:15:39.657Z,67.68
2018-04-30T13:16:40.136Z,67.4
2018-04-30T13:17:40.228Z,66.43
2018-04-30T13:18:40.207Z,66.43
2018-04-30T13:19:40.554Z,67.49
2018-04-30T13:20:40.370Z,66.72
2018-04-30T13:21:40.465Z,66.43
2018-04-30T13:22:40.467Z,66.72
2018-04-30T13:23:40.386Z,67.2
2018-04-30T13:24:40.137Z,65.85
2018-04-30T13:25:40.451Z,66.82
2018-04-30T13:26:40.582Z,64.89
2018-04-30T13:27:40.354Z,65.85
2018-04-30T13:28:40.793Z,65.5
2018-04-30T13:29:40.720Z,65.75
2018-04-30T13:30:40.804Z,64.79
2018-04-30T13:31:40.758Z,65.37
2018-04-30T13:32:40.659Z,64.59
2018-04-30T13:33:41.455Z,65.4
2018-04-30T13:34:41.855Z,64.15
2018-04-30T13:35:41.468Z,63.85
2018-04-30T13:36:41.506Z,64.05
2018-04-30T13:37:41.286Z,63.67
2018-04-30T13:38:42.214Z,63.95
2018-04-30T13:39:42.340Z,63.15
2018-04-30T13:40:42.213Z,63.54
2018-04-30T13:41:42.011Z,64.66
2018-04-30T13:42:42.521Z,65.24
2018-04-30T13:43:42.909Z,65.43
2018-04-30T13:44:42.708Z,65.72
2018-04-30T13:45:42.461Z,66.46
2018-04-30T13:46:42.451Z,66.36
2018-04-30T13:47:42.691Z,65.98
2018-04-30T13:48:42.808Z,66.55
2018-04-30T13:49:42.768Z,63.85
2018-04-30T13:50:42.847Z,65.4
2018-04-30T13:51:43.010Z,65.59
2018-04-30T13:52:42.681Z,65.3
2018-04-30T13:53:43.018Z,64.63
2018-04-30T13:54:43.901Z,64.63
2018-04-30T13:55:43.704Z,65.2
2018-04-30T13:56:44.370Z,65.4
2018-04-30T13:57:44.299Z,63.67
2018-04-30T13:58:43.970Z,63.57
2018-04-30T13:59:44.321Z,63.18
2018-04-30T15:00:11.092Z,61.58
2018-04-30T15:01:10.098Z,61.19
2018-04-30T15:02:09.812Z,61.29
2018-04-30T15:03:09.853Z,61.39
2018-04-30T15:04:10.316Z,61.58
2018-04-30T15:05:10.076Z,61.68
2018-04-30T15:06:10.389Z,62.26
2018-04-30T15:07:10.653Z,61.49
2018-04-30T15:08:10.940Z,62.35
2018-04-30T15:09:10.986Z,61.19
2018-04-30T15:10:10.746Z,60.24
2018-04-30T15:11:11.185Z,60.14
2018-04-30T15:12:11.338Z,60.3
2018-04-30T15:13:11.388Z,59.82
2018-04-30T15:14:11.225Z,60.11
2018-04-30T15:15:11.515Z,61.74
2018-04-30T15:16:11.461Z,60.66
2018-04-30T15:17:11.232Z,60.08
2018-04-30T15:18:11.566Z,60.17
2018-04-30T15:19:11.773Z,60.17
2018-04-30T15:20:12.234Z,60.66
2018-04-30T15:21:11.996Z,61.4
2018-04-30T15:22:12.265Z,61.58
2018-04-30T15:23:12.687Z,61.58
2018-04-30T15:24:12.911Z,62.64
2018-04-30T15:25:13.002Z,62.35
2018-04-30T15:26:13.465Z,63.12
2018-04-30T15:27:13.502Z,62.26
2018-04-30T15:28:14.459Z,61.68
2018-04-30T15:29:14.352Z,60.91
2018-04-30T15:30:14.374Z,60.34
2018-04-30T15:31:14.663Z,61.97
2018-04-30T15:32:15.128Z,61.2
2018-04-30T15:33:14.592Z,60.94
2018-04-30T15:34:15.129Z,60.75
2018-04-30T15:35:15.166Z,60.66
2018-04-30T15:36:15.197Z,60.17
2018-04-30T15:37:15.581Z,59.02
2018-04-30T15:38:15.444Z,59.79
2018-04-30T15:39:15.702Z,58.73
2018-04-30T15:40:15.904Z,58.92
2018-04-30T15:41:15.820Z,57.97
2018-04-30T15:42:15.896Z,59.12
2018-04-30T15:43:16.034Z,61.04
2018-04-30T15:44:15.588Z,60.08
2018-04-30T15:45:16.097Z,60.46
2018-04-30T15:46:16.228Z,61.52
2018-04-30T15:47:16.911Z,61.81
2018-04-30T15:48:16.903Z,61.71
2018-04-30T15:49:17.214Z,61.14
2018-04-30T15:50:16.708Z,61.43
2018-04-30T15:51:17.138Z,60.37
2018-04-30T15:52:17.432Z,60.37
2018-04-30T15:53:17.392Z,61.3
2018-04-30T15:54:17.529Z,62.26
2018-04-30T15:55:18.056Z,61.11
2018-04-30T15:56:17.606Z,61.49
2018-04-30T15:57:17.924Z,60.53
2018-04-30T15:58:17.990Z,61.3
2018-04-30T15:59:17.996Z,61.55
2018-04-30T16:00:18.352Z,62.13
2018-04-30T16:01:18.474Z,61.55
2018-04-30T16:02:18.093Z,62.23
2018-04-30T16:03:18.419Z,61.75
2018-04-30T16:04:18.193Z,61.27
2018-04-30T16:05:18.614Z,61.55
2018-04-30T16:06:18.676Z,61.65
2018-04-30T16:07:18.369Z,62.04
2018-04-30T16:08:19.845Z,61.65
2018-04-30T16:09:19.582Z,61.08
2018-04-30T16:10:20.079Z,62.9
2018-04-30T16:11:19.867Z,60.6
2018-04-30T16:12:19.887Z,60.69
2018-04-30T16:13:20.124Z,61.55